sensor_id;sensor_type;location;lat;lon;timestamp;temperature;humidity
18876;DHT22;9570;50.854;13.778;2023-03-24T00:00:14;11.60;99.90
18876;DHT22;9570;50.854;13.778;2023-03-24T00:02:41;11.70;99.90
18876;DHT22;9570;50.854;13.778;2023-03-24T00:05:13;11.70;99.90
18876;DHT22;9570;50.854;13.778;2023-03-24T00:07:39;11.60;99.90
18876;DHT22;9570;50.854;13.778;2023-03-24T00:10:06;11.60;99.90
18876;DHT22;9570;50.854;13.778;2023-03-24T00:12:33;11.60;99.90
18876;DHT22;9570;50.854;13.778;2023-03-24T00:15:07;11.60;99.90
18876;DHT22;9570;50.854;13.778;2023-03-24T00:17:33;11.70;99.90
18876;DHT22;9570;50.854;13.778;2023-03-24T00:20:03;11.70;99.90
18876;DHT22;9570;50.854;13.778;2023-03-24T00:22:35;11.80;99.90
18876;DHT22;9570;50.854;13.778;2023-03-24T00:25:02;11.80;99.90
18876;DHT22;9570;50.854;13.778;2023-03-24T00:27:28;11.80;99.90
18876;DHT22;9570;50.854;13.778;2023-03-24T00:29:54;11.80;99.90
18876;DHT22;9570;50.854;13.778;2023-03-24T00:32:23;11.80;99.90
18876;DHT22;9570;50.854;13.778;2023-03-24T00:34:48;11.80;99.90
18876;DHT22;9570;50.854;13.778;2023-03-24T00:37:14;11.80;99.90
18876;DHT22;9570;50.854;13.778;2023-03-24T00:39:41;11.90;99.90
18876;DHT22;9570;50.854;13.778;2023-03-24T00:42:06;11.90;99.90
18876;DHT22;9570;50.854;13.778;2023-03-24T00:44:32;11.90;99.90
18876;DHT22;9570;50.854;13.778;2023-03-24T00:46:58;11.90;99.90
18876;DHT22;9570;50.854;13.778;2023-03-24T00:49:26;12.00;99.90
18876;DHT22;9570;50.854;13.778;2023-03-24T00:52:16;12.10;99.90
18876;DHT22;9570;50.854;13.778;2023-03-24T00:54:45;12.20;99.90
18876;DHT22;9570;50.854;13.778;2023-03-24T00:57:12;12.30;99.90
18876;DHT22;9570;50.854;13.778;2023-03-24T00:59:39;12.30;99.90
18876;DHT22;9570;50.854;13.778;2023-03-24T01:02:13;12.40;99.90
18876;DHT22;9570;50.854;13.778;2023-03-24T01:04:39;12.40;99.90
18876;DHT22;9570;50.854;13.778;2023-03-24T01:07:06;12.40;99.90
18876;DHT22;9570;50.854;13.778;2023-03-24T01:09:33;12.50;99.90
18876;DHT22;9570;50.854;13.778;2023-03-24T01:12:01;12.50;99.90
18876;DHT22;9570;50.854;13.778;2023-03-24T01:14:28;12.50;99.90
18876;DHT22;9570;50.854;13.778;2023-03-24T01:16:54;12.60;99.90
18876;DHT22;9570;50.854;13.778;2023-03-24T01:19:20;12.60;99.90
18876;DHT22;9570;50.854;13.778;2023-03-24T01:21:45;12.70;99.90
18876;DHT22;9570;50.854;13.778;2023-03-24T01:24:12;12.80;99.90
18876;DHT22;9570;50.854;13.778;2023-03-24T01:26:38;12.90;99.90
18876;DHT22;9570;50.854;13.778;2023-03-24T01:29:03;13.00;99.90
18876;DHT22;9570;50.854;13.778;2023-03-24T01:31:29;13.10;99.90
18876;DHT22;9570;50.854;13.778;2023-03-24T01:33:54;13.10;99.90
18876;DHT22;9570;50.854;13.778;2023-03-24T01:36:20;13.20;99.90
18876;DHT22;9570;50.854;13.778;2023-03-24T01:38:45;13.10;99.90
18876;DHT22;9570;50.854;13.778;2023-03-24T01:41:11;13.10;99.90
18876;DHT22;9570;50.854;13.778;2023-03-24T01:43:36;13.10;99.90
18876;DHT22;9570;50.854;13.778;2023-03-24T01:46:19;13.10;99.90
18876;DHT22;9570;50.854;13.778;2023-03-24T01:48:56;13.10;99.90
18876;DHT22;9570;50.854;13.778;2023-03-24T01:51:27;13.20;99.90
18876;DHT22;9570;50.854;13.778;2023-03-24T01:53:58;13.20;99.90
18876;DHT22;9570;50.854;13.778;2023-03-24T01:56:26;13.20;99.90
18876;DHT22;9570;50.854;13.778;2023-03-24T01:58:57;13.20;99.90
18876;DHT22;9570;50.854;13.778;2023-03-24T02:01:23;13.20;99.90
18876;DHT22;9570;50.854;13.778;2023-03-24T02:03:50;13.20;99.90
18876;DHT22;9570;50.854;13.778;2023-03-24T02:06:17;13.20;99.90
18876;DHT22;9570;50.854;13.778;2023-03-24T02:08:51;13.10;99.90
18876;DHT22;9570;50.854;13.778;2023-03-24T02:11:19;13.10;99.90
18876;DHT22;9570;50.854;13.778;2023-03-24T02:13:44;13.10;99.90
18876;DHT22;9570;50.854;13.778;2023-03-24T02:16:32;13.10;99.90
18876;DHT22;9570;50.854;13.778;2023-03-24T02:22:16;13.00;99.90
18876;DHT22;9570;50.854;13.778;2023-03-24T02:25:13;13.00;99.90
18876;DHT22;9570;50.854;13.778;2023-03-24T02:30:30;13.10;99.90
18876;DHT22;9570;50.854;13.778;2023-03-24T02:46:45;13.00;99.90
18876;DHT22;9570;50.854;13.778;2023-03-24T02:49:46;13.10;99.90
18876;DHT22;9570;50.854;13.778;2023-03-24T02:52:26;13.10;99.90
18876;DHT22;9570;50.854;13.778;2023-03-24T02:55:01;13.10;99.90
18876;DHT22;9570;50.854;13.778;2023-03-24T02:57:48;13.10;99.90
18876;DHT22;9570;50.854;13.778;2023-03-24T03:03:18;13.00;99.90
18876;DHT22;9570;50.854;13.778;2023-03-24T03:05:56;13.00;99.90
18876;DHT22;9570;50.854;13.778;2023-03-24T03:08:27;12.90;99.90
18876;DHT22;9570;50.854;13.778;2023-03-24T03:10:54;12.80;99.90
18876;DHT22;9570;50.854;13.778;2023-03-24T03:15:55;12.70;99.90
18876;DHT22;9570;50.854;13.778;2023-03-24T03:18:30;12.80;99.90
18876;DHT22;9570;50.854;13.778;2023-03-24T03:21:03;12.90;99.90
18876;DHT22;9570;50.854;13.778;2023-03-24T03:23:35;12.90;99.90
18876;DHT22;9570;50.854;13.778;2023-03-24T03:26:04;12.90;99.90
18876;DHT22;9570;50.854;13.778;2023-03-24T03:28:32;12.80;99.90
18876;DHT22;9570;50.854;13.778;2023-03-24T03:31:02;12.80;99.90
18876;DHT22;9570;50.854;13.778;2023-03-24T03:33:43;12.80;99.90
18876;DHT22;9570;50.854;13.778;2023-03-24T03:36:32;12.90;99.90
18876;DHT22;9570;50.854;13.778;2023-03-24T03:39:08;12.90;99.90
18876;DHT22;9570;50.854;13.778;2023-03-24T03:41:36;12.90;99.90
18876;DHT22;9570;50.854;13.778;2023-03-24T03:44:02;12.80;99.90
18876;DHT22;9570;50.854;13.778;2023-03-24T03:46:28;12.80;99.90
18876;DHT22;9570;50.854;13.778;2023-03-24T03:48:53;12.90;99.90
18876;DHT22;9570;50.854;13.778;2023-03-24T03:51:19;13.00;99.90
18876;DHT22;9570;50.854;13.778;2023-03-24T03:53:54;13.10;99.90
18876;DHT22;9570;50.854;13.778;2023-03-24T03:56:25;13.10;99.90
18876;DHT22;9570;50.854;13.778;2023-03-24T03:58:51;13.10;99.90
18876;DHT22;9570;50.854;13.778;2023-03-24T04:01:20;13.10;99.90
18876;DHT22;9570;50.854;13.778;2023-03-24T04:04:08;13.10;99.90
18876;DHT22;9570;50.854;13.778;2023-03-24T04:06:47;13.10;99.90
18876;DHT22;9570;50.854;13.778;2023-03-24T04:09:30;13.00;99.90
18876;DHT22;9570;50.854;13.778;2023-03-24T04:21:40;12.70;99.90
18876;DHT22;9570;50.854;13.778;2023-03-24T04:27:26;12.30;99.90
18876;DHT22;9570;50.854;13.778;2023-03-24T04:32:58;12.20;99.90
18876;DHT22;9570;50.854;13.778;2023-03-24T04:38:06;12.30;99.90
18876;DHT22;9570;50.854;13.778;2023-03-24T04:40:34;12.40;99.90
18876;DHT22;9570;50.854;13.778;2023-03-24T04:43:03;12.40;99.90
18876;DHT22;9570;50.854;13.778;2023-03-24T04:45:31;12.40;99.90
18876;DHT22;9570;50.854;13.778;2023-03-24T04:48:01;12.40;99.90
18876;DHT22;9570;50.854;13.778;2023-03-24T04:50:29;12.40;99.90
18876;DHT22;9570;50.854;13.778;2023-03-24T04:52:56;12.30;99.90
18876;DHT22;9570;50.854;13.778;2023-03-24T04:55:38;12.30;99.90
18876;DHT22;9570;50.854;13.778;2023-03-24T04:58:08;12.10;99.90
18876;DHT22;9570;50.854;13.778;2023-03-24T05:00:33;12.10;99.90
18876;DHT22;9570;50.854;13.778;2023-03-24T05:03:01;12.00;99.90
18876;DHT22;9570;50.854;13.778;2023-03-24T05:05:27;12.00;99.90
18876;DHT22;9570;50.854;13.778;2023-03-24T05:07:52;12.00;99.90
18876;DHT22;9570;50.854;13.778;2023-03-24T05:10:18;12.00;99.90
18876;DHT22;9570;50.854;13.778;2023-03-24T05:12:44;12.00;99.90
18876;DHT22;9570;50.854;13.778;2023-03-24T05:15:11;12.00;99.90
18876;DHT22;9570;50.854;13.778;2023-03-24T05:17:36;12.00;99.90
18876;DHT22;9570;50.854;13.778;2023-03-24T05:20:02;12.00;99.90
18876;DHT22;9570;50.854;13.778;2023-03-24T05:22:31;12.10;99.90
18876;DHT22;9570;50.854;13.778;2023-03-24T05:24:56;12.20;99.90
18876;DHT22;9570;50.854;13.778;2023-03-24T05:27:22;12.30;99.90
18876;DHT22;9570;50.854;13.778;2023-03-24T05:29:47;12.40;99.90
18876;DHT22;9570;50.854;13.778;2023-03-24T05:32:13;12.50;99.90
18876;DHT22;9570;50.854;13.778;2023-03-24T05:34:38;12.50;99.90
18876;DHT22;9570;50.854;13.778;2023-03-24T05:37:04;12.50;99.90
18876;DHT22;9570;50.854;13.778;2023-03-24T05:39:30;12.60;99.90
18876;DHT22;9570;50.854;13.778;2023-03-24T05:41:56;12.60;99.90
18876;DHT22;9570;50.854;13.778;2023-03-24T05:44:21;12.70;99.90
18876;DHT22;9570;50.854;13.778;2023-03-24T05:46:47;12.80;99.90
18876;DHT22;9570;50.854;13.778;2023-03-24T05:49:12;12.80;99.90
18876;DHT22;9570;50.854;13.778;2023-03-24T05:51:39;12.90;99.90
18876;DHT22;9570;50.854;13.778;2023-03-24T05:54:04;13.00;99.90
18876;DHT22;9570;50.854;13.778;2023-03-24T05:56:30;13.00;99.90
18876;DHT22;9570;50.854;13.778;2023-03-24T05:58:56;13.10;99.90
18876;DHT22;9570;50.854;13.778;2023-03-24T06:01:22;13.20;99.90
18876;DHT22;9570;50.854;13.778;2023-03-24T06:03:49;13.30;99.90
18876;DHT22;9570;50.854;13.778;2023-03-24T06:06:15;13.30;99.90
18876;DHT22;9570;50.854;13.778;2023-03-24T06:08:41;13.20;99.90
18876;DHT22;9570;50.854;13.778;2023-03-24T06:11:09;13.20;99.90
18876;DHT22;9570;50.854;13.778;2023-03-24T06:13:35;13.30;99.90
18876;DHT22;9570;50.854;13.778;2023-03-24T06:16:01;13.30;99.90
18876;DHT22;9570;50.854;13.778;2023-03-24T06:18:26;13.30;99.90
18876;DHT22;9570;50.854;13.778;2023-03-24T06:20:53;13.30;99.90
18876;DHT22;9570;50.854;13.778;2023-03-24T06:23:23;13.40;99.90
18876;DHT22;9570;50.854;13.778;2023-03-24T06:25:50;13.40;99.90
18876;DHT22;9570;50.854;13.778;2023-03-24T06:28:16;13.40;99.90
18876;DHT22;9570;50.854;13.778;2023-03-24T06:30:43;13.40;99.90
18876;DHT22;9570;50.854;13.778;2023-03-24T06:33:09;13.40;99.90
18876;DHT22;9570;50.854;13.778;2023-03-24T06:35:35;13.40;99.90
18876;DHT22;9570;50.854;13.778;2023-03-24T06:38:01;13.40;99.90
18876;DHT22;9570;50.854;13.778;2023-03-24T06:40:26;13.40;99.90
18876;DHT22;9570;50.854;13.778;2023-03-24T06:42:52;13.50;99.90
18876;DHT22;9570;50.854;13.778;2023-03-24T06:45:17;13.50;99.90
18876;DHT22;9570;50.854;13.778;2023-03-24T06:47:43;13.60;99.90
18876;DHT22;9570;50.854;13.778;2023-03-24T06:50:09;13.60;99.90
18876;DHT22;9570;50.854;13.778;2023-03-24T06:52:34;13.60;99.90
18876;DHT22;9570;50.854;13.778;2023-03-24T06:55:01;13.70;99.90
18876;DHT22;9570;50.854;13.778;2023-03-24T06:57:26;13.70;99.90
18876;DHT22;9570;50.854;13.778;2023-03-24T06:59:53;13.80;99.90
18876;DHT22;9570;50.854;13.778;2023-03-24T07:02:19;13.80;99.90
18876;DHT22;9570;50.854;13.778;2023-03-24T07:04:44;13.70;99.90
18876;DHT22;9570;50.854;13.778;2023-03-24T07:07:10;13.70;99.90
18876;DHT22;9570;50.854;13.778;2023-03-24T07:09:37;13.70;99.90
18876;DHT22;9570;50.854;13.778;2023-03-24T07:12:06;13.70;99.90
18876;DHT22;9570;50.854;13.778;2023-03-24T07:14:32;13.70;99.90
18876;DHT22;9570;50.854;13.778;2023-03-24T07:16:57;13.70;99.90
18876;DHT22;9570;50.854;13.778;2023-03-24T07:19:23;13.70;99.90
18876;DHT22;9570;50.854;13.778;2023-03-24T07:21:49;13.80;99.90
18876;DHT22;9570;50.854;13.778;2023-03-24T07:24:18;13.90;99.90
18876;DHT22;9570;50.854;13.778;2023-03-24T07:26:44;13.90;99.90
18876;DHT22;9570;50.854;13.778;2023-03-24T07:29:10;14.00;99.90
18876;DHT22;9570;50.854;13.778;2023-03-24T07:31:36;14.00;99.90
18876;DHT22;9570;50.854;13.778;2023-03-24T07:34:04;14.10;99.90
18876;DHT22;9570;50.854;13.778;2023-03-24T07:36:29;14.20;99.90
18876;DHT22;9570;50.854;13.778;2023-03-24T07:38:55;14.20;99.90
18876;DHT22;9570;50.854;13.778;2023-03-24T07:41:21;14.30;99.90
18876;DHT22;9570;50.854;13.778;2023-03-24T07:43:47;14.40;99.90
18876;DHT22;9570;50.854;13.778;2023-03-24T07:46:12;14.40;99.90
18876;DHT22;9570;50.854;13.778;2023-03-24T07:48:38;14.50;99.90
18876;DHT22;9570;50.854;13.778;2023-03-24T07:51:03;14.50;99.90
18876;DHT22;9570;50.854;13.778;2023-03-24T07:53:29;14.60;99.90
18876;DHT22;9570;50.854;13.778;2023-03-24T07:55:54;14.60;99.90
18876;DHT22;9570;50.854;13.778;2023-03-24T07:58:20;14.60;99.90
18876;DHT22;9570;50.854;13.778;2023-03-24T08:00:46;14.60;99.90
18876;DHT22;9570;50.854;13.778;2023-03-24T08:03:12;14.70;99.90
18876;DHT22;9570;50.854;13.778;2023-03-24T08:05:40;14.80;99.90
18876;DHT22;9570;50.854;13.778;2023-03-24T08:08:06;14.80;99.90
18876;DHT22;9570;50.854;13.778;2023-03-24T08:10:32;14.90;99.90
18876;DHT22;9570;50.854;13.778;2023-03-24T08:12:58;15.00;99.90
18876;DHT22;9570;50.854;13.778;2023-03-24T08:15:25;15.00;99.90
18876;DHT22;9570;50.854;13.778;2023-03-24T08:17:51;15.10;99.90
18876;DHT22;9570;50.854;13.778;2023-03-24T08:20:18;15.10;99.90
18876;DHT22;9570;50.854;13.778;2023-03-24T08:22:46;15.20;99.90
18876;DHT22;9570;50.854;13.778;2023-03-24T08:25:16;15.20;99.90
18876;DHT22;9570;50.854;13.778;2023-03-24T08:27:42;15.30;99.90
18876;DHT22;9570;50.854;13.778;2023-03-24T08:30:15;15.40;99.90
18876;DHT22;9570;50.854;13.778;2023-03-24T08:32:49;15.60;99.90
18876;DHT22;9570;50.854;13.778;2023-03-24T08:35:17;15.70;99.90
18876;DHT22;9570;50.854;13.778;2023-03-24T08:37:43;15.70;99.90
18876;DHT22;9570;50.854;13.778;2023-03-24T08:40:12;15.70;99.90
18876;DHT22;9570;50.854;13.778;2023-03-24T08:42:39;15.80;99.90
18876;DHT22;9570;50.854;13.778;2023-03-24T08:45:06;15.80;99.90
18876;DHT22;9570;50.854;13.778;2023-03-24T08:47:33;15.80;99.90
18876;DHT22;9570;50.854;13.778;2023-03-24T08:49:59;15.60;99.90
18876;DHT22;9570;50.854;13.778;2023-03-24T08:52:25;15.50;99.90
18876;DHT22;9570;50.854;13.778;2023-03-24T08:54:51;15.50;99.90
18876;DHT22;9570;50.854;13.778;2023-03-24T08:57:16;15.50;99.90
18876;DHT22;9570;50.854;13.778;2023-03-24T08:59:42;15.40;99.90
18876;DHT22;9570;50.854;13.778;2023-03-24T09:02:11;15.50;99.90
18876;DHT22;9570;50.854;13.778;2023-03-24T09:04:37;15.40;99.90
18876;DHT22;9570;50.854;13.778;2023-03-24T09:07:03;15.40;99.90
18876;DHT22;9570;50.854;13.778;2023-03-24T09:09:30;15.40;99.90
18876;DHT22;9570;50.854;13.778;2023-03-24T09:11:56;15.40;99.90
18876;DHT22;9570;50.854;13.778;2023-03-24T09:14:21;15.30;99.90
18876;DHT22;9570;50.854;13.778;2023-03-24T09:16:47;15.30;99.90
18876;DHT22;9570;50.854;13.778;2023-03-24T09:19:16;15.20;99.90
18876;DHT22;9570;50.854;13.778;2023-03-24T09:21:44;15.40;99.90
18876;DHT22;9570;50.854;13.778;2023-03-24T09:24:10;15.40;99.90
18876;DHT22;9570;50.854;13.778;2023-03-24T09:26:35;15.50;99.90
18876;DHT22;9570;50.854;13.778;2023-03-24T09:29:01;15.60;99.90
18876;DHT22;9570;50.854;13.778;2023-03-24T09:31:27;15.70;99.90
18876;DHT22;9570;50.854;13.778;2023-03-24T09:33:52;15.80;99.90
18876;DHT22;9570;50.854;13.778;2023-03-24T09:36:18;15.80;99.90
18876;DHT22;9570;50.854;13.778;2023-03-24T09:38:43;16.00;99.90
18876;DHT22;9570;50.854;13.778;2023-03-24T09:41:26;16.30;99.90
18876;DHT22;9570;50.854;13.778;2023-03-24T09:46:46;16.70;99.90
18876;DHT22;9570;50.854;13.778;2023-03-24T09:49:16;16.60;99.90
18876;DHT22;9570;50.854;13.778;2023-03-24T09:51:44;16.50;99.90
18876;DHT22;9570;50.854;13.778;2023-03-24T09:54:30;16.40;99.90
18876;DHT22;9570;50.854;13.778;2023-03-24T09:56:58;16.10;99.90
18876;DHT22;9570;50.854;13.778;2023-03-24T09:59:37;16.00;99.90
18876;DHT22;9570;50.854;13.778;2023-03-24T10:02:15;16.00;99.90
18876;DHT22;9570;50.854;13.778;2023-03-24T10:04:40;15.80;99.90
18876;DHT22;9570;50.854;13.778;2023-03-24T10:10:01;16.30;99.90
18876;DHT22;9570;50.854;13.778;2023-03-24T10:12:35;16.20;99.90
18876;DHT22;9570;50.854;13.778;2023-03-24T10:22:59;16.00;99.90
18876;DHT22;9570;50.854;13.778;2023-03-24T10:25:51;16.00;99.90
18876;DHT22;9570;50.854;13.778;2023-03-24T10:28:27;16.10;99.90
18876;DHT22;9570;50.854;13.778;2023-03-24T10:30:56;16.20;99.90
18876;DHT22;9570;50.854;13.778;2023-03-24T10:33:24;16.20;99.90
18876;DHT22;9570;50.854;13.778;2023-03-24T10:36:21;16.30;99.90
18876;DHT22;9570;50.854;13.778;2023-03-24T10:38:46;16.40;99.90
18876;DHT22;9570;50.854;13.778;2023-03-24T10:41:19;16.50;99.90
18876;DHT22;9570;50.854;13.778;2023-03-24T10:43:46;16.60;99.90
18876;DHT22;9570;50.854;13.778;2023-03-24T10:46:20;16.60;99.90
18876;DHT22;9570;50.854;13.778;2023-03-24T10:48:54;16.40;99.90
18876;DHT22;9570;50.854;13.778;2023-03-24T10:51:32;16.30;99.90
18876;DHT22;9570;50.854;13.778;2023-03-24T10:56:44;16.50;99.90
18876;DHT22;9570;50.854;13.778;2023-03-24T11:02:17;17.00;99.90
18876;DHT22;9570;50.854;13.778;2023-03-24T11:04:53;17.00;99.90
18876;DHT22;9570;50.854;13.778;2023-03-24T11:07:21;17.10;99.90
18876;DHT22;9570;50.854;13.778;2023-03-24T11:12:31;17.10;99.90
18876;DHT22;9570;50.854;13.778;2023-03-24T11:15:16;17.10;99.90
18876;DHT22;9570;50.854;13.778;2023-03-24T11:17:46;17.00;99.90
18876;DHT22;9570;50.854;13.778;2023-03-24T11:20:24;17.00;99.90
18876;DHT22;9570;50.854;13.778;2023-03-24T11:25:39;16.70;99.90
18876;DHT22;9570;50.854;13.778;2023-03-24T11:28:14;16.60;99.90
18876;DHT22;9570;50.854;13.778;2023-03-24T11:30:49;16.70;99.90
18876;DHT22;9570;50.854;13.778;2023-03-24T11:33:21;16.80;99.90
18876;DHT22;9570;50.854;13.778;2023-03-24T11:35:48;16.90;99.90
18876;DHT22;9570;50.854;13.778;2023-03-24T11:38:31;17.00;99.90
18876;DHT22;9570;50.854;13.778;2023-03-24T11:41:00;17.00;99.90
18876;DHT22;9570;50.854;13.778;2023-03-24T11:43:28;16.90;99.90
18876;DHT22;9570;50.854;13.778;2023-03-24T11:46:01;16.90;99.90
18876;DHT22;9570;50.854;13.778;2023-03-24T11:48:38;16.80;99.90
18876;DHT22;9570;50.854;13.778;2023-03-24T11:51:08;16.60;99.90
18876;DHT22;9570;50.854;13.778;2023-03-24T11:53:50;16.60;99.90
18876;DHT22;9570;50.854;13.778;2023-03-24T11:56:36;16.50;99.90
18876;DHT22;9570;50.854;13.778;2023-03-24T12:01:41;16.30;99.90
18876;DHT22;9570;50.854;13.778;2023-03-24T12:10:18;16.70;99.90
18876;DHT22;9570;50.854;13.778;2023-03-24T12:13:00;16.70;99.90
18876;DHT22;9570;50.854;13.778;2023-03-24T12:15:46;16.60;99.90
18876;DHT22;9570;50.854;13.778;2023-03-24T12:26:26;16.40;99.90
18876;DHT22;9570;50.854;13.778;2023-03-24T12:29:17;16.40;99.90
18876;DHT22;9570;50.854;13.778;2023-03-24T12:32:41;16.40;99.90
18876;DHT22;9570;50.854;13.778;2023-03-24T12:34:48;16.50;99.90
18876;DHT22;9570;50.854;13.778;2023-03-24T12:37:41;16.30;99.90
18876;DHT22;9570;50.854;13.778;2023-03-24T12:42:46;16.30;99.90
18876;DHT22;9570;50.854;13.778;2023-03-24T12:45:43;16.40;99.90
18876;DHT22;9570;50.854;13.778;2023-03-24T12:53:53;16.00;99.90
18876;DHT22;9570;50.854;13.778;2023-03-24T12:56:38;15.90;99.90
18876;DHT22;9570;50.854;13.778;2023-03-24T12:59:29;15.80;99.90
18876;DHT22;9570;50.854;13.778;2023-03-24T13:02:18;15.60;99.90
18876;DHT22;9570;50.854;13.778;2023-03-24T13:04:47;15.60;99.90
18876;DHT22;9570;50.854;13.778;2023-03-24T13:07:18;15.50;99.90
18876;DHT22;9570;50.854;13.778;2023-03-24T13:12:22;15.40;99.90
18876;DHT22;9570;50.854;13.778;2023-03-24T13:17:32;15.50;99.90
18876;DHT22;9570;50.854;13.778;2023-03-24T13:20:00;15.50;99.90
18876;DHT22;9570;50.854;13.778;2023-03-24T13:22:33;15.50;99.90
18876;DHT22;9570;50.854;13.778;2023-03-24T13:25:00;15.60;99.90
18876;DHT22;9570;50.854;13.778;2023-03-24T13:27:38;15.60;99.90
18876;DHT22;9570;50.854;13.778;2023-03-24T13:30:18;15.60;99.90
18876;DHT22;9570;50.854;13.778;2023-03-24T13:32:50;15.50;99.90
18876;DHT22;9570;50.854;13.778;2023-03-24T13:35:46;15.50;99.90
18876;DHT22;9570;50.854;13.778;2023-03-24T13:38:34;15.50;99.90
18876;DHT22;9570;50.854;13.778;2023-03-24T13:41:04;15.60;99.90
18876;DHT22;9570;50.854;13.778;2023-03-24T13:43:31;15.60;99.90
18876;DHT22;9570;50.854;13.778;2023-03-24T13:46:03;15.70;99.90
18876;DHT22;9570;50.854;13.778;2023-03-24T13:48:38;15.70;99.90
18876;DHT22;9570;50.854;13.778;2023-03-24T13:51:28;15.60;99.90
18876;DHT22;9570;50.854;13.778;2023-03-24T13:56:32;15.60;99.90
18876;DHT22;9570;50.854;13.778;2023-03-24T14:01:33;15.50;99.90
18876;DHT22;9570;50.854;13.778;2023-03-24T14:04:20;15.50;99.90
18876;DHT22;9570;50.854;13.778;2023-03-24T14:06:48;15.60;99.90
18876;DHT22;9570;50.854;13.778;2023-03-24T14:09:25;15.60;99.90
18876;DHT22;9570;50.854;13.778;2023-03-24T14:14:24;15.80;99.90
18876;DHT22;9570;50.854;13.778;2023-03-24T14:16:51;16.00;99.90
18876;DHT22;9570;50.854;13.778;2023-03-24T14:19:30;16.00;99.90
18876;DHT22;9570;50.854;13.778;2023-03-24T14:22:23;15.50;99.90
18876;DHT22;9570;50.854;13.778;2023-03-24T14:24:58;14.70;99.90
18876;DHT22;9570;50.854;13.778;2023-03-24T14:27:39;13.60;99.90
18876;DHT22;9570;50.854;13.778;2023-03-24T14:32:49;12.50;99.90
18876;DHT22;9570;50.854;13.778;2023-03-24T14:35:35;12.10;99.90
18876;DHT22;9570;50.854;13.778;2023-03-24T14:40:45;12.10;99.90
18876;DHT22;9570;50.854;13.778;2023-03-24T14:51:43;11.80;99.90
18876;DHT22;9570;50.854;13.778;2023-03-24T14:54:20;11.90;99.90
18876;DHT22;9570;50.854;13.778;2023-03-24T14:56:50;11.70;99.90
18876;DHT22;9570;50.854;13.778;2023-03-24T14:59:34;11.60;99.90
18876;DHT22;9570;50.854;13.778;2023-03-24T15:07:45;12.00;99.90
18876;DHT22;9570;50.854;13.778;2023-03-24T15:10:16;11.80;99.90
18876;DHT22;9570;50.854;13.778;2023-03-24T15:12:43;11.80;99.90
18876;DHT22;9570;50.854;13.778;2023-03-24T15:15:21;11.80;99.90
18876;DHT22;9570;50.854;13.778;2023-03-24T15:17:48;11.70;99.90
18876;DHT22;9570;50.854;13.778;2023-03-24T15:20:27;11.80;99.90
18876;DHT22;9570;50.854;13.778;2023-03-24T15:22:53;11.70;99.90
18876;DHT22;9570;50.854;13.778;2023-03-24T15:25:28;11.80;99.90
18876;DHT22;9570;50.854;13.778;2023-03-24T15:27:55;11.80;99.90
18876;DHT22;9570;50.854;13.778;2023-03-24T15:30:22;11.60;99.90
18876;DHT22;9570;50.854;13.778;2023-03-24T15:32:48;11.50;99.90
18876;DHT22;9570;50.854;13.778;2023-03-24T15:35:20;11.40;99.90
18876;DHT22;9570;50.854;13.778;2023-03-24T15:37:51;11.40;99.90
18876;DHT22;9570;50.854;13.778;2023-03-24T15:40:30;11.20;99.90
18876;DHT22;9570;50.854;13.778;2023-03-24T15:42:58;11.20;99.90
18876;DHT22;9570;50.854;13.778;2023-03-24T15:45:43;11.20;99.90
18876;DHT22;9570;50.854;13.778;2023-03-24T15:48:16;11.30;99.90
18876;DHT22;9570;50.854;13.778;2023-03-24T15:51:00;11.30;99.90
18876;DHT22;9570;50.854;13.778;2023-03-24T15:58:51;11.40;99.90
18876;DHT22;9570;50.854;13.778;2023-03-24T16:01:25;11.40;99.90
18876;DHT22;9570;50.854;13.778;2023-03-24T16:03:52;11.40;99.90
18876;DHT22;9570;50.854;13.778;2023-03-24T16:06:32;11.20;99.90
18876;DHT22;9570;50.854;13.778;2023-03-24T16:09:12;11.30;99.90
18876;DHT22;9570;50.854;13.778;2023-03-24T16:11:39;11.40;99.90
18876;DHT22;9570;50.854;13.778;2023-03-24T16:14:26;11.60;99.90
18876;DHT22;9570;50.854;13.778;2023-03-24T16:16:58;11.60;99.90
18876;DHT22;9570;50.854;13.778;2023-03-24T16:19:24;11.60;99.90
18876;DHT22;9570;50.854;13.778;2023-03-24T16:21:50;11.50;99.90
18876;DHT22;9570;50.854;13.778;2023-03-24T16:24:16;11.50;99.90
18876;DHT22;9570;50.854;13.778;2023-03-24T16:26:42;11.60;99.90
18876;DHT22;9570;50.854;13.778;2023-03-24T16:29:18;11.40;99.90
18876;DHT22;9570;50.854;13.778;2023-03-24T16:31:47;11.40;99.90
18876;DHT22;9570;50.854;13.778;2023-03-24T16:34:14;11.40;99.90
18876;DHT22;9570;50.854;13.778;2023-03-24T16:36:40;11.50;99.90
18876;DHT22;9570;50.854;13.778;2023-03-24T16:39:13;11.40;99.90
18876;DHT22;9570;50.854;13.778;2023-03-24T16:41:40;11.50;99.90
18876;DHT22;9570;50.854;13.778;2023-03-24T16:44:05;11.60;99.90
18876;DHT22;9570;50.854;13.778;2023-03-24T16:46:32;11.60;99.90
18876;DHT22;9570;50.854;13.778;2023-03-24T16:49:00;11.70;99.90
18876;DHT22;9570;50.854;13.778;2023-03-24T16:51:25;11.70;99.90
18876;DHT22;9570;50.854;13.778;2023-03-24T16:53:51;11.70;99.90
18876;DHT22;9570;50.854;13.778;2023-03-24T16:56:19;11.80;99.90
18876;DHT22;9570;50.854;13.778;2023-03-24T16:58:45;11.70;99.90
18876;DHT22;9570;50.854;13.778;2023-03-24T17:04:03;11.70;99.90
18876;DHT22;9570;50.854;13.778;2023-03-24T17:06:31;11.80;99.90
18876;DHT22;9570;50.854;13.778;2023-03-24T17:08:57;11.70;99.90
18876;DHT22;9570;50.854;13.778;2023-03-24T17:11:28;11.60;99.90
18876;DHT22;9570;50.854;13.778;2023-03-24T17:13:55;11.60;99.90
18876;DHT22;9570;50.854;13.778;2023-03-24T17:16:29;11.60;99.90
18876;DHT22;9570;50.854;13.778;2023-03-24T17:18:55;11.50;99.90
18876;DHT22;9570;50.854;13.778;2023-03-24T17:21:21;11.50;99.90
18876;DHT22;9570;50.854;13.778;2023-03-24T17:23:47;11.60;99.90
18876;DHT22;9570;50.854;13.778;2023-03-24T17:26:14;11.50;99.90
18876;DHT22;9570;50.854;13.778;2023-03-24T17:28:40;11.50;99.90
18876;DHT22;9570;50.854;13.778;2023-03-24T17:31:06;11.50;99.90
18876;DHT22;9570;50.854;13.778;2023-03-24T17:33:31;11.50;99.90
18876;DHT22;9570;50.854;13.778;2023-03-24T17:35:57;11.60;99.90
18876;DHT22;9570;50.854;13.778;2023-03-24T17:38:23;11.70;99.90
18876;DHT22;9570;50.854;13.778;2023-03-24T17:40:58;11.60;99.90
18876;DHT22;9570;50.854;13.778;2023-03-24T17:43:23;11.50;99.90
18876;DHT22;9570;50.854;13.778;2023-03-24T17:45:48;11.50;99.90
18876;DHT22;9570;50.854;13.778;2023-03-24T17:48:14;11.50;99.90
18876;DHT22;9570;50.854;13.778;2023-03-24T17:50:39;11.50;99.90
18876;DHT22;9570;50.854;13.778;2023-03-24T17:53:05;11.50;99.90
18876;DHT22;9570;50.854;13.778;2023-03-24T17:55:31;11.40;99.90
18876;DHT22;9570;50.854;13.778;2023-03-24T17:57:56;11.50;99.90
18876;DHT22;9570;50.854;13.778;2023-03-24T18:00:22;11.50;99.90
18876;DHT22;9570;50.854;13.778;2023-03-24T18:02:48;11.50;99.90